Погода Тиянгуана 2 недели

Сеара, Бразилия

18 - 31 июля
  • 18июля
    Сегодня
    +19°
    +27°
    Практически безоблачно
    ВремяПогодаТемператураВлажностьДавлениеВетер, м/сВероятность осадков
    00:00Ясно и безоблачно+22°C64 %711 мм2.2 м/с5 %
    03:00Ясно и безоблачно+20°C73 %710 мм2.5 м/с5 %
    06:00Ясно и безоблачно+19°C95 %711 мм3.0 м/с5 %
    09:00Небольшая облачность+24°C72 %713 мм6.2 м/с8 %
    12:00Облачно с прояснениями+26°C56 %712 мм4.6 м/с12 %
    15:00Практически безоблачно+26°C51 %710 мм4.0 м/с5 %
    18:00Практически безоблачно+24°C66 %711 мм1.6 м/с5 %
    21:00Ясно и безоблачно+23°C61 %712 мм2.6 м/с5 %
  • 19июля
    Пятница
    +19°
    +28°
    Практически безоблачно
    ВремяПогодаТемператураВлажностьДавлениеВетер, м/сВероятность осадков
    00:00Ясно и безоблачно+23°C59 %712 мм2.5 м/с5 %
    03:00Ясно и безоблачно+20°C66 %710 мм2.2 м/с5 %
    06:00Пасмурно, сплошная облачность+20°C97 %711 мм3.6 м/с5 %
    09:00Ясно и безоблачно+24°C73 %713 мм6.3 м/с5 %
    12:00Ясно и безоблачно+26°C59 %712 мм4.5 м/с5 %
    15:00Практически безоблачно+27°C51 %711 мм4.0 м/с1 %
    18:00Ясно и безоблачно+25°C62 %711 мм2.1 м/с1 %
    21:00Ясно и безоблачно+23°C63 %712 мм3.4 м/с2 %
  • 20июля
    Суббота
    +19°
    +27°
    Ясно и безоблачно
    ВремяПогодаТемператураВлажностьДавлениеВетер, м/сВероятность осадков
    00:00Ясно и безоблачно+23°C62 %711 мм2.2 м/с2 %
    03:00Ясно и безоблачно+20°C85 %710 мм3.7 м/с7 %
    06:00Ясно и безоблачно+20°C96 %711 мм3.5 м/с12 %
    09:00Практически безоблачно+24°C72 %712 мм5.4 м/с4 %
    12:00Облачно с прояснениями+26°C56 %712 мм6.0 м/с7 %
    15:00Ясно и безоблачно+26°C51 %710 мм4.9 м/с9 %
    18:00Ясно и безоблачно+24°C59 %710 мм2.5 м/с4 %
    21:00Практически безоблачно+23°C59 %712 мм3.2 м/с5 %
  • 21июля
    Воскресенье
    +18°
    +28°
    Практически безоблачно
    ВремяПогодаТемператураВлажностьДавлениеВетер, м/сВероятность осадков
    00:00Ясно и безоблачно+23°C53 %711 мм3.9 м/с3 %
    03:00Ясно и безоблачно+20°C60 %710 мм3.9 м/с5 %
    06:00Ясно и безоблачно+19°C82 %710 мм4.6 м/с3 %
    09:00Ясно и безоблачно+24°C59 %712 мм5.4 м/с5 %
    12:00Ясно и безоблачно+26°C48 %711 мм5.6 м/с5 %
    15:00Практически безоблачно+27°C43 %710 мм3.9 м/с5 %
    18:00Ясно и безоблачно+25°C53 %710 мм2.5 м/с5 %
    21:00Ясно и безоблачно+23°C54 %711 мм3.4 м/с5 %
  • 22июля
    Понедельник
    +19°
    +28°
    Ясно и безоблачно
    ВремяПогодаТемператураВлажностьДавлениеВетер, м/сВероятность осадков
    00:00Ясно и безоблачно+23°C57 %711 мм2.8 м/с5 %
    03:00Ясно и безоблачно+19°C87 %710 мм3.0 м/с5 %
    06:00Облачно с прояснениями+19°C98 %711 мм4.4 м/с5 %
    09:00Ясно и безоблачно+24°C65 %712 мм6.8 м/с5 %
    12:00Ясно и безоблачно+26°C53 %712 мм5.9 м/с5 %
    15:00Ясно и безоблачно+27°C47 %711 мм4.6 м/с5 %
    18:00Ясно и безоблачно+25°C55 %711 мм2.7 м/с5 %
    21:00Ясно и безоблачно+23°C58 %712 мм3.4 м/с5 %
Мы используем cookies
Соглашаюсь